sensor_id;sensor_type;location;lat;lon;timestamp;P1;durP1;ratioP1;P2;durP2;ratioP2
3815;SDS011;1923;48.154;11.536;2022-09-16T00:00:54;3.47;;;2.60;;
3815;SDS011;1923;48.154;11.536;2022-09-16T00:03:23;5.00;;;3.17;;
3815;SDS011;1923;48.154;11.536;2022-09-16T00:05:51;4.30;;;3.10;;
3815;SDS011;1923;48.154;11.536;2022-09-16T00:08:20;6.17;;;3.30;;
3815;SDS011;1923;48.154;11.536;2022-09-16T00:10:48;4.60;;;3.07;;
3815;SDS011;1923;48.154;11.536;2022-09-16T00:13:17;4.83;;;3.13;;
3815;SDS011;1923;48.154;11.536;2022-09-16T00:15:46;4.57;;;3.00;;
3815;SDS011;1923;48.154;11.536;2022-09-16T00:18:18;3.83;;;2.93;;
3815;SDS011;1923;48.154;11.536;2022-09-16T00:20:47;5.93;;;3.00;;
3815;SDS011;1923;48.154;11.536;2022-09-16T00:23:17;5.50;;;2.90;;
3815;SDS011;1923;48.154;11.536;2022-09-16T00:25:49;5.57;;;3.23;;
3815;SDS011;1923;48.154;11.536;2022-09-16T00:28:22;4.37;;;3.40;;
3815;SDS011;1923;48.154;11.536;2022-09-16T00:30:58;5.83;;;3.40;;
3815;SDS011;1923;48.154;11.536;2022-09-16T00:33:34;5.37;;;3.10;;
3815;SDS011;1923;48.154;11.536;2022-09-16T00:36:09;5.67;;;2.80;;
3815;SDS011;1923;48.154;11.536;2022-09-16T00:38:41;3.80;;;3.03;;
3815;SDS011;1923;48.154;11.536;2022-09-16T00:41:17;4.43;;;2.83;;
3815;SDS011;1923;48.154;11.536;2022-09-16T00:43:51;4.17;;;2.77;;
3815;SDS011;1923;48.154;11.536;2022-09-16T00:46:27;4.90;;;3.10;;
3815;SDS011;1923;48.154;11.536;2022-09-16T00:49:08;3.63;;;2.97;;
3815;SDS011;1923;48.154;11.536;2022-09-16T00:51:42;5.50;;;3.10;;
3815;SDS011;1923;48.154;11.536;2022-09-16T00:54:16;7.07;;;2.73;;
3815;SDS011;1923;48.154;11.536;2022-09-16T00:56:51;4.70;;;3.10;;
3815;SDS011;1923;48.154;11.536;2022-09-16T00:59:24;4.33;;;3.23;;
3815;SDS011;1923;48.154;11.536;2022-09-16T01:01:58;4.10;;;2.70;;
3815;SDS011;1923;48.154;11.536;2022-09-16T01:04:34;4.60;;;2.90;;
3815;SDS011;1923;48.154;11.536;2022-09-16T01:07:06;5.87;;;3.70;;
3815;SDS011;1923;48.154;11.536;2022-09-16T01:09:40;3.73;;;3.00;;
3815;SDS011;1923;48.154;11.536;2022-09-16T01:12:16;4.67;;;3.03;;
3815;SDS011;1923;48.154;11.536;2022-09-16T01:14:49;5.87;;;3.20;;
3815;SDS011;1923;48.154;11.536;2022-09-16T01:17:27;5.83;;;3.23;;
3815;SDS011;1923;48.154;11.536;2022-09-16T01:23:09;6.00;;;3.27;;
3815;SDS011;1923;48.154;11.536;2022-09-16T01:25:58;5.70;;;2.83;;
3815;SDS011;1923;48.154;11.536;2022-09-16T01:31:58;5.90;;;3.23;;
3815;SDS011;1923;48.154;11.536;2022-09-16T01:34:34;4.13;;;3.30;;
3815;SDS011;1923;48.154;11.536;2022-09-16T01:37:11;6.80;;;2.90;;
3815;SDS011;1923;48.154;11.536;2022-09-16T01:39:47;6.30;;;3.10;;
3815;SDS011;1923;48.154;11.536;2022-09-16T01:42:22;4.43;;;3.10;;
3815;SDS011;1923;48.154;11.536;2022-09-16T01:44:59;4.73;;;3.27;;
3815;SDS011;1923;48.154;11.536;2022-09-16T01:47:35;4.97;;;3.27;;
3815;SDS011;1923;48.154;11.536;2022-09-16T01:50:08;6.70;;;3.67;;
3815;SDS011;1923;48.154;11.536;2022-09-16T01:52:44;4.67;;;3.00;;
3815;SDS011;1923;48.154;11.536;2022-09-16T01:55:21;4.70;;;3.00;;
3815;SDS011;1923;48.154;11.536;2022-09-16T01:57:54;5.13;;;3.40;;
3815;SDS011;1923;48.154;11.536;2022-09-16T02:00:24;6.37;;;3.57;;
3815;SDS011;1923;48.154;11.536;2022-09-16T02:02:54;2.80;;;2.50;;
3815;SDS011;1923;48.154;11.536;2022-09-16T02:05:27;4.70;;;2.97;;
3815;SDS011;1923;48.154;11.536;2022-09-16T02:08:00;5.53;;;3.00;;
3815;SDS011;1923;48.154;11.536;2022-09-16T02:10:33;6.20;;;3.73;;
3815;SDS011;1923;48.154;11.536;2022-09-16T02:13:07;4.97;;;2.83;;
3815;SDS011;1923;48.154;11.536;2022-09-16T02:15:39;4.90;;;3.07;;
3815;SDS011;1923;48.154;11.536;2022-09-16T02:18:12;5.00;;;3.23;;
3815;SDS011;1923;48.154;11.536;2022-09-16T02:20:45;4.87;;;3.07;;
3815;SDS011;1923;48.154;11.536;2022-09-16T02:23:17;4.50;;;2.83;;
3815;SDS011;1923;48.154;11.536;2022-09-16T02:25:47;6.00;;;3.40;;
3815;SDS011;1923;48.154;11.536;2022-09-16T02:28:18;5.80;;;3.90;;
3815;SDS011;1923;48.154;11.536;2022-09-16T02:30:52;6.90;;;2.80;;
3815;SDS011;1923;48.154;11.536;2022-09-16T02:33:26;7.10;;;3.33;;
3815;SDS011;1923;48.154;11.536;2022-09-16T02:35:59;3.67;;;2.80;;
3815;SDS011;1923;48.154;11.536;2022-09-16T02:38:29;5.33;;;3.33;;
3815;SDS011;1923;48.154;11.536;2022-09-16T02:41:01;5.10;;;3.53;;
3815;SDS011;1923;48.154;11.536;2022-09-16T02:43:29;4.40;;;3.00;;
3815;SDS011;1923;48.154;11.536;2022-09-16T02:45:58;5.63;;;3.40;;
3815;SDS011;1923;48.154;11.536;2022-09-16T02:48:39;5.57;;;3.43;;
3815;SDS011;1923;48.154;11.536;2022-09-16T02:51:15;4.50;;;2.67;;
3815;SDS011;1923;48.154;11.536;2022-09-16T02:53:51;3.00;;;2.57;;
3815;SDS011;1923;48.154;11.536;2022-09-16T02:56:23;5.30;;;3.43;;
3815;SDS011;1923;48.154;11.536;2022-09-16T02:58:55;5.33;;;3.73;;
3815;SDS011;1923;48.154;11.536;2022-09-16T03:01:24;4.30;;;3.13;;
3815;SDS011;1923;48.154;11.536;2022-09-16T03:03:55;4.73;;;2.63;;
3815;SDS011;1923;48.154;11.536;2022-09-16T03:06:23;5.87;;;3.33;;
3815;SDS011;1923;48.154;11.536;2022-09-16T03:08:53;9.13;;;3.40;;
3815;SDS011;1923;48.154;11.536;2022-09-16T03:11:32;3.13;;;2.50;;
3815;SDS011;1923;48.154;11.536;2022-09-16T03:17:28;4.43;;;3.33;;
3815;SDS011;1923;48.154;11.536;2022-09-16T03:20:14;5.83;;;3.30;;
3815;SDS011;1923;48.154;11.536;2022-09-16T03:22:48;5.30;;;3.70;;
3815;SDS011;1923;48.154;11.536;2022-09-16T03:25:25;4.30;;;3.90;;
3815;SDS011;1923;48.154;11.536;2022-09-16T03:28:05;4.97;;;3.40;;
3815;SDS011;1923;48.154;11.536;2022-09-16T03:30:37;4.50;;;2.80;;
3815;SDS011;1923;48.154;11.536;2022-09-16T03:33:12;4.70;;;3.33;;
3815;SDS011;1923;48.154;11.536;2022-09-16T03:35:50;4.47;;;3.10;;
3815;SDS011;1923;48.154;11.536;2022-09-16T03:38:20;4.80;;;3.90;;
3815;SDS011;1923;48.154;11.536;2022-09-16T03:40:48;4.33;;;3.00;;
3815;SDS011;1923;48.154;11.536;2022-09-16T03:43:17;6.30;;;3.07;;
3815;SDS011;1923;48.154;11.536;2022-09-16T03:45:45;8.60;;;4.40;;
3815;SDS011;1923;48.154;11.536;2022-09-16T03:48:13;6.27;;;3.60;;
3815;SDS011;1923;48.154;11.536;2022-09-16T03:50:41;6.37;;;4.27;;
3815;SDS011;1923;48.154;11.536;2022-09-16T03:53:11;4.63;;;3.30;;
3815;SDS011;1923;48.154;11.536;2022-09-16T03:55:39;5.37;;;4.77;;
3815;SDS011;1923;48.154;11.536;2022-09-16T03:58:06;6.20;;;3.50;;
3815;SDS011;1923;48.154;11.536;2022-09-16T04:00:35;8.00;;;3.87;;
3815;SDS011;1923;48.154;11.536;2022-09-16T04:03:03;8.10;;;3.93;;
3815;SDS011;1923;48.154;11.536;2022-09-16T04:05:31;6.50;;;3.23;;
3815;SDS011;1923;48.154;11.536;2022-09-16T04:07:59;5.50;;;3.50;;
3815;SDS011;1923;48.154;11.536;2022-09-16T04:10:29;6.20;;;3.70;;
3815;SDS011;1923;48.154;11.536;2022-09-16T04:12:57;5.57;;;3.60;;
3815;SDS011;1923;48.154;11.536;2022-09-16T04:15:25;3.90;;;3.17;;
3815;SDS011;1923;48.154;11.536;2022-09-16T04:17:52;7.77;;;4.53;;
3815;SDS011;1923;48.154;11.536;2022-09-16T04:20:21;7.07;;;4.03;;
3815;SDS011;1923;48.154;11.536;2022-09-16T04:22:50;4.57;;;3.50;;
3815;SDS011;1923;48.154;11.536;2022-09-16T04:25:18;6.20;;;3.77;;
3815;SDS011;1923;48.154;11.536;2022-09-16T04:27:47;5.73;;;3.90;;
3815;SDS011;1923;48.154;11.536;2022-09-16T04:30:15;6.50;;;4.10;;
3815;SDS011;1923;48.154;11.536;2022-09-16T04:32:44;7.80;;;4.30;;
3815;SDS011;1923;48.154;11.536;2022-09-16T04:35:12;7.37;;;4.37;;
3815;SDS011;1923;48.154;11.536;2022-09-16T04:37:40;6.20;;;4.13;;
3815;SDS011;1923;48.154;11.536;2022-09-16T04:40:08;7.53;;;4.90;;
3815;SDS011;1923;48.154;11.536;2022-09-16T04:42:36;4.43;;;3.90;;
3815;SDS011;1923;48.154;11.536;2022-09-16T04:45:06;9.03;;;5.23;;
3815;SDS011;1923;48.154;11.536;2022-09-16T04:47:35;8.13;;;4.77;;
3815;SDS011;1923;48.154;11.536;2022-09-16T04:50:03;8.57;;;5.33;;
3815;SDS011;1923;48.154;11.536;2022-09-16T04:52:32;7.30;;;4.60;;
3815;SDS011;1923;48.154;11.536;2022-09-16T04:55:00;9.90;;;4.70;;
3815;SDS011;1923;48.154;11.536;2022-09-16T04:57:29;9.07;;;4.90;;
3815;SDS011;1923;48.154;11.536;2022-09-16T04:59:57;8.60;;;5.00;;
3815;SDS011;1923;48.154;11.536;2022-09-16T05:02:27;8.40;;;5.07;;
3815;SDS011;1923;48.154;11.536;2022-09-16T05:04:55;11.57;;;6.20;;
3815;SDS011;1923;48.154;11.536;2022-09-16T05:07:23;9.20;;;4.37;;
3815;SDS011;1923;48.154;11.536;2022-09-16T05:09:51;7.37;;;5.03;;
3815;SDS011;1923;48.154;11.536;2022-09-16T05:12:19;7.70;;;4.90;;
3815;SDS011;1923;48.154;11.536;2022-09-16T05:14:47;11.17;;;4.70;;
3815;SDS011;1923;48.154;11.536;2022-09-16T05:17:15;8.20;;;4.40;;
3815;SDS011;1923;48.154;11.536;2022-09-16T05:20:05;7.47;;;4.43;;
3815;SDS011;1923;48.154;11.536;2022-09-16T05:22:33;7.10;;;4.67;;
3815;SDS011;1923;48.154;11.536;2022-09-16T05:25:02;7.80;;;4.87;;
3815;SDS011;1923;48.154;11.536;2022-09-16T05:27:30;9.73;;;5.07;;
3815;SDS011;1923;48.154;11.536;2022-09-16T05:29:59;9.20;;;4.77;;
3815;SDS011;1923;48.154;11.536;2022-09-16T05:32:27;11.60;;;6.37;;
3815;SDS011;1923;48.154;11.536;2022-09-16T05:34:56;6.87;;;4.87;;
3815;SDS011;1923;48.154;11.536;2022-09-16T05:37:25;9.73;;;5.40;;
3815;SDS011;1923;48.154;11.536;2022-09-16T05:39:53;8.13;;;5.10;;
3815;SDS011;1923;48.154;11.536;2022-09-16T05:42:22;8.80;;;5.20;;
3815;SDS011;1923;48.154;11.536;2022-09-16T05:44:50;11.10;;;6.00;;
3815;SDS011;1923;48.154;11.536;2022-09-16T05:47:18;7.83;;;4.53;;
3815;SDS011;1923;48.154;11.536;2022-09-16T05:49:46;9.30;;;5.40;;
3815;SDS011;1923;48.154;11.536;2022-09-16T05:52:14;8.43;;;6.07;;
3815;SDS011;1923;48.154;11.536;2022-09-16T05:54:43;8.77;;;5.20;;
3815;SDS011;1923;48.154;11.536;2022-09-16T05:57:11;8.57;;;5.00;;
3815;SDS011;1923;48.154;11.536;2022-09-16T05:59:39;8.30;;;5.03;;
3815;SDS011;1923;48.154;11.536;2022-09-16T06:02:07;9.67;;;5.37;;
3815;SDS011;1923;48.154;11.536;2022-09-16T06:04:38;9.30;;;5.67;;
3815;SDS011;1923;48.154;11.536;2022-09-16T06:07:05;8.23;;;5.30;;
3815;SDS011;1923;48.154;11.536;2022-09-16T06:09:34;10.07;;;6.70;;
3815;SDS011;1923;48.154;11.536;2022-09-16T06:12:03;10.10;;;5.40;;
3815;SDS011;1923;48.154;11.536;2022-09-16T06:14:31;9.00;;;5.30;;
3815;SDS011;1923;48.154;11.536;2022-09-16T06:17:00;13.67;;;6.77;;
3815;SDS011;1923;48.154;11.536;2022-09-16T06:19:28;10.60;;;5.63;;
3815;SDS011;1923;48.154;11.536;2022-09-16T06:21:56;12.13;;;5.27;;
3815;SDS011;1923;48.154;11.536;2022-09-16T06:24:24;7.60;;;5.07;;
3815;SDS011;1923;48.154;11.536;2022-09-16T06:26:53;10.17;;;5.13;;
3815;SDS011;1923;48.154;11.536;2022-09-16T06:29:23;7.90;;;4.43;;
3815;SDS011;1923;48.154;11.536;2022-09-16T06:31:51;9.13;;;5.87;;
3815;SDS011;1923;48.154;11.536;2022-09-16T06:34:19;12.40;;;5.33;;
3815;SDS011;1923;48.154;11.536;2022-09-16T06:36:47;9.03;;;4.93;;
3815;SDS011;1923;48.154;11.536;2022-09-16T06:39:15;8.70;;;5.67;;
3815;SDS011;1923;48.154;11.536;2022-09-16T06:41:43;10.43;;;5.60;;
3815;SDS011;1923;48.154;11.536;2022-09-16T06:44:11;13.87;;;7.80;;
3815;SDS011;1923;48.154;11.536;2022-09-16T06:46:41;13.43;;;6.57;;
3815;SDS011;1923;48.154;11.536;2022-09-16T06:49:09;10.27;;;5.90;;
3815;SDS011;1923;48.154;11.536;2022-09-16T06:51:38;9.83;;;6.37;;
3815;SDS011;1923;48.154;11.536;2022-09-16T06:54:06;10.77;;;6.00;;
3815;SDS011;1923;48.154;11.536;2022-09-16T06:56:36;13.23;;;5.33;;
3815;SDS011;1923;48.154;11.536;2022-09-16T06:59:05;10.23;;;5.57;;
3815;SDS011;1923;48.154;11.536;2022-09-16T07:01:34;9.43;;;6.20;;
3815;SDS011;1923;48.154;11.536;2022-09-16T07:04:04;11.83;;;6.30;;
3815;SDS011;1923;48.154;11.536;2022-09-16T07:06:35;9.60;;;6.13;;
3815;SDS011;1923;48.154;11.536;2022-09-16T07:09:23;11.57;;;7.03;;
3815;SDS011;1923;48.154;11.536;2022-09-16T07:11:51;14.97;;;7.07;;
3815;SDS011;1923;48.154;11.536;2022-09-16T07:14:20;12.70;;;6.40;;
3815;SDS011;1923;48.154;11.536;2022-09-16T07:16:48;14.27;;;5.70;;
3815;SDS011;1923;48.154;11.536;2022-09-16T07:19:18;9.90;;;6.10;;
3815;SDS011;1923;48.154;11.536;2022-09-16T07:21:46;10.27;;;6.07;;
3815;SDS011;1923;48.154;11.536;2022-09-16T07:24:14;10.40;;;6.07;;
3815;SDS011;1923;48.154;11.536;2022-09-16T07:26:42;13.23;;;7.70;;
3815;SDS011;1923;48.154;11.536;2022-09-16T07:29:11;11.00;;;6.67;;
3815;SDS011;1923;48.154;11.536;2022-09-16T07:31:41;10.40;;;5.70;;
3815;SDS011;1923;48.154;11.536;2022-09-16T07:34:10;10.57;;;6.27;;
3815;SDS011;1923;48.154;11.536;2022-09-16T07:36:41;13.07;;;6.70;;
3815;SDS011;1923;48.154;11.536;2022-09-16T07:39:10;10.17;;;5.53;;
3815;SDS011;1923;48.154;11.536;2022-09-16T07:41:39;11.43;;;6.37;;
3815;SDS011;1923;48.154;11.536;2022-09-16T07:44:09;10.67;;;6.10;;
3815;SDS011;1923;48.154;11.536;2022-09-16T07:46:38;12.83;;;6.20;;
3815;SDS011;1923;48.154;11.536;2022-09-16T07:49:07;9.00;;;6.30;;
3815;SDS011;1923;48.154;11.536;2022-09-16T07:51:37;10.50;;;6.63;;
3815;SDS011;1923;48.154;11.536;2022-09-16T07:54:07;12.13;;;7.40;;
3815;SDS011;1923;48.154;11.536;2022-09-16T07:56:38;11.37;;;7.00;;
3815;SDS011;1923;48.154;11.536;2022-09-16T07:59:09;11.00;;;6.47;;
3815;SDS011;1923;48.154;11.536;2022-09-16T08:01:44;13.20;;;6.63;;
3815;SDS011;1923;48.154;11.536;2022-09-16T08:04:12;9.50;;;6.60;;
3815;SDS011;1923;48.154;11.536;2022-09-16T08:06:40;11.20;;;6.63;;
3815;SDS011;1923;48.154;11.536;2022-09-16T08:09:10;11.03;;;6.00;;
3815;SDS011;1923;48.154;11.536;2022-09-16T08:11:58;9.73;;;5.67;;
3815;SDS011;1923;48.154;11.536;2022-09-16T08:14:28;8.87;;;5.90;;
3815;SDS011;1923;48.154;11.536;2022-09-16T08:16:56;11.10;;;6.30;;
3815;SDS011;1923;48.154;11.536;2022-09-16T08:19:24;10.70;;;6.30;;
3815;SDS011;1923;48.154;11.536;2022-09-16T08:21:52;11.23;;;6.13;;
3815;SDS011;1923;48.154;11.536;2022-09-16T08:24:21;8.13;;;5.90;;
3815;SDS011;1923;48.154;11.536;2022-09-16T08:26:49;9.40;;;6.67;;
3815;SDS011;1923;48.154;11.536;2022-09-16T08:29:18;9.13;;;5.70;;
3815;SDS011;1923;48.154;11.536;2022-09-16T08:31:47;8.30;;;5.63;;
3815;SDS011;1923;48.154;11.536;2022-09-16T08:34:15;12.87;;;5.57;;
3815;SDS011;1923;48.154;11.536;2022-09-16T08:36:43;9.57;;;5.70;;
3815;SDS011;1923;48.154;11.536;2022-09-16T08:39:12;9.43;;;5.90;;
3815;SDS011;1923;48.154;11.536;2022-09-16T08:41:55;11.07;;;6.10;;
3815;SDS011;1923;48.154;11.536;2022-09-16T08:44:57;8.13;;;5.47;;
3815;SDS011;1923;48.154;11.536;2022-09-16T08:47:33;10.00;;;5.47;;
3815;SDS011;1923;48.154;11.536;2022-09-16T08:50:11;12.40;;;5.73;;
3815;SDS011;1923;48.154;11.536;2022-09-16T08:52:43;9.13;;;5.73;;
3815;SDS011;1923;48.154;11.536;2022-09-16T08:55:13;10.40;;;5.80;;
3815;SDS011;1923;48.154;11.536;2022-09-16T08:57:47;10.23;;;6.37;;
3815;SDS011;1923;48.154;11.536;2022-09-16T09:00:21;11.20;;;6.27;;
3815;SDS011;1923;48.154;11.536;2022-09-16T09:02:51;10.53;;;6.70;;
3815;SDS011;1923;48.154;11.536;2022-09-16T09:05:24;10.53;;;6.17;;
3815;SDS011;1923;48.154;11.536;2022-09-16T09:08:04;10.60;;;5.90;;
3815;SDS011;1923;48.154;11.536;2022-09-16T09:10:40;17.03;;;8.40;;
3815;SDS011;1923;48.154;11.536;2022-09-16T09:13:16;10.77;;;6.90;;
3815;SDS011;1923;48.154;11.536;2022-09-16T09:15:57;7.73;;;4.97;;
3815;SDS011;1923;48.154;11.536;2022-09-16T09:18:35;12.23;;;6.17;;
3815;SDS011;1923;48.154;11.536;2022-09-16T09:21:18;10.20;;;5.67;;
3815;SDS011;1923;48.154;11.536;2022-09-16T09:23:56;8.80;;;5.27;;
3815;SDS011;1923;48.154;11.536;2022-09-16T09:26:44;10.30;;;6.30;;
3815;SDS011;1923;48.154;11.536;2022-09-16T09:32:27;10.03;;;6.13;;
3815;SDS011;1923;48.154;11.536;2022-09-16T09:35:20;9.50;;;5.73;;
3815;SDS011;1923;48.154;11.536;2022-09-16T09:38:00;10.57;;;6.90;;
3815;SDS011;1923;48.154;11.536;2022-09-16T09:40:50;10.63;;;5.77;;
3815;SDS011;1923;48.154;11.536;2022-09-16T09:43:24;9.93;;;6.83;;
3815;SDS011;1923;48.154;11.536;2022-09-16T09:45:58;10.30;;;6.20;;
3815;SDS011;1923;48.154;11.536;2022-09-16T09:48:32;12.80;;;6.30;;
3815;SDS011;1923;48.154;11.536;2022-09-16T09:51:04;13.10;;;6.60;;
3815;SDS011;1923;48.154;11.536;2022-09-16T09:53:40;12.57;;;6.30;;
3815;SDS011;1923;48.154;11.536;2022-09-16T09:56:14;11.20;;;6.13;;
3815;SDS011;1923;48.154;11.536;2022-09-16T09:58:47;11.40;;;6.43;;
3815;SDS011;1923;48.154;11.536;2022-09-16T10:01:24;17.30;;;8.70;;
3815;SDS011;1923;48.154;11.536;2022-09-16T10:03:53;10.87;;;6.73;;
3815;SDS011;1923;48.154;11.536;2022-09-16T10:06:24;15.57;;;8.87;;
3815;SDS011;1923;48.154;11.536;2022-09-16T10:08:55;14.27;;;7.00;;
3815;SDS011;1923;48.154;11.536;2022-09-16T10:11:25;10.87;;;6.47;;
3815;SDS011;1923;48.154;11.536;2022-09-16T10:13:56;9.87;;;7.23;;
3815;SDS011;1923;48.154;11.536;2022-09-16T10:16:27;13.80;;;7.17;;
3815;SDS011;1923;48.154;11.536;2022-09-16T10:19:01;10.77;;;6.80;;
3815;SDS011;1923;48.154;11.536;2022-09-16T10:21:38;12.40;;;6.80;;
3815;SDS011;1923;48.154;11.536;2022-09-16T10:24:23;12.97;;;7.70;;
3815;SDS011;1923;48.154;11.536;2022-09-16T10:26:57;12.57;;;7.47;;
3815;SDS011;1923;48.154;11.536;2022-09-16T10:29:27;15.23;;;8.67;;
3815;SDS011;1923;48.154;11.536;2022-09-16T10:31:55;13.70;;;7.53;;
3815;SDS011;1923;48.154;11.536;2022-09-16T10:34:33;14.83;;;8.67;;
3815;SDS011;1923;48.154;11.536;2022-09-16T10:37:11;14.97;;;7.30;;
3815;SDS011;1923;48.154;11.536;2022-09-16T10:39:43;16.27;;;8.57;;
3815;SDS011;1923;48.154;11.536;2022-09-16T10:42:18;14.23;;;8.10;;
3815;SDS011;1923;48.154;11.536;2022-09-16T10:44:48;18.40;;;9.17;;
3815;SDS011;1923;48.154;11.536;2022-09-16T10:47:19;15.40;;;8.80;;
3815;SDS011;1923;48.154;11.536;2022-09-16T10:49:51;14.97;;;8.80;;
3815;SDS011;1923;48.154;11.536;2022-09-16T10:52:22;11.67;;;6.03;;
3815;SDS011;1923;48.154;11.536;2022-09-16T10:54:51;9.03;;;6.37;;
3815;SDS011;1923;48.154;11.536;2022-09-16T10:57:20;9.80;;;5.33;;
3815;SDS011;1923;48.154;11.536;2022-09-16T10:59:58;9.20;;;5.03;;
3815;SDS011;1923;48.154;11.536;2022-09-16T11:02:40;10.17;;;5.47;;
3815;SDS011;1923;48.154;11.536;2022-09-16T11:05:24;9.30;;;4.23;;
3815;SDS011;1923;48.154;11.536;2022-09-16T11:08:01;12.70;;;5.97;;
3815;SDS011;1923;48.154;11.536;2022-09-16T11:10:39;6.50;;;4.60;;
3815;SDS011;1923;48.154;11.536;2022-09-16T11:13:25;12.73;;;5.50;;
3815;SDS011;1923;48.154;11.536;2022-09-16T11:16:03;9.03;;;5.70;;
3815;SDS011;1923;48.154;11.536;2022-09-16T11:18:45;14.20;;;6.00;;
3815;SDS011;1923;48.154;11.536;2022-09-16T11:21:28;11.87;;;5.87;;
3815;SDS011;1923;48.154;11.536;2022-09-16T11:24:07;10.50;;;6.50;;
3815;SDS011;1923;48.154;11.536;2022-09-16T11:26:47;13.73;;;5.73;;
3815;SDS011;1923;48.154;11.536;2022-09-16T11:29:33;12.10;;;7.37;;
3815;SDS011;1923;48.154;11.536;2022-09-16T11:32:13;9.30;;;5.60;;
3815;SDS011;1923;48.154;11.536;2022-09-16T11:34:53;10.23;;;5.73;;
3815;SDS011;1923;48.154;11.536;2022-09-16T11:37:37;7.63;;;5.73;;
3815;SDS011;1923;48.154;11.536;2022-09-16T11:40:14;9.73;;;6.17;;
3815;SDS011;1923;48.154;11.536;2022-09-16T11:42:49;8.30;;;5.20;;
3815;SDS011;1923;48.154;11.536;2022-09-16T11:45:29;9.87;;;6.00;;
3815;SDS011;1923;48.154;11.536;2022-09-16T11:51:01;11.90;;;4.43;;
3815;SDS011;1923;48.154;11.536;2022-09-16T11:53:41;6.77;;;4.80;;
3815;SDS011;1923;48.154;11.536;2022-09-16T11:56:31;6.53;;;4.60;;
3815;SDS011;1923;48.154;11.536;2022-09-16T11:59:07;8.47;;;4.57;;
3815;SDS011;1923;48.154;11.536;2022-09-16T12:01:42;6.67;;;4.70;;
3815;SDS011;1923;48.154;11.536;2022-09-16T12:04:14;9.33;;;5.10;;
3815;SDS011;1923;48.154;11.536;2022-09-16T12:06:49;9.50;;;5.23;;
3815;SDS011;1923;48.154;11.536;2022-09-16T12:09:25;8.33;;;6.27;;
3815;SDS011;1923;48.154;11.536;2022-09-16T12:11:59;11.47;;;5.77;;
3815;SDS011;1923;48.154;11.536;2022-09-16T12:14:37;7.80;;;5.40;;
3815;SDS011;1923;48.154;11.536;2022-09-16T12:17:10;8.13;;;5.53;;
3815;SDS011;1923;48.154;11.536;2022-09-16T12:19:45;9.00;;;5.70;;
3815;SDS011;1923;48.154;11.536;2022-09-16T12:22:18;8.83;;;5.73;;
3815;SDS011;1923;48.154;11.536;2022-09-16T12:24:50;7.37;;;4.67;;
3815;SDS011;1923;48.154;11.536;2022-09-16T12:27:27;10.80;;;5.67;;
3815;SDS011;1923;48.154;11.536;2022-09-16T12:30:03;8.23;;;5.00;;
3815;SDS011;1923;48.154;11.536;2022-09-16T12:32:34;7.57;;;4.60;;
3815;SDS011;1923;48.154;11.536;2022-09-16T12:35:10;8.47;;;4.43;;
3815;SDS011;1923;48.154;11.536;2022-09-16T12:37:43;7.53;;;4.33;;
3815;SDS011;1923;48.154;11.536;2022-09-16T12:40:16;8.70;;;4.20;;
3815;SDS011;1923;48.154;11.536;2022-09-16T12:43:00;8.37;;;5.00;;
3815;SDS011;1923;48.154;11.536;2022-09-16T12:46:01;8.20;;;5.67;;
3815;SDS011;1923;48.154;11.536;2022-09-16T12:48:59;6.37;;;4.20;;
3815;SDS011;1923;48.154;11.536;2022-09-16T12:51:44;7.90;;;4.43;;
3815;SDS011;1923;48.154;11.536;2022-09-16T12:54:41;6.17;;;3.90;;
3815;SDS011;1923;48.154;11.536;2022-09-16T12:57:42;9.17;;;4.63;;
3815;SDS011;1923;48.154;11.536;2022-09-16T13:00:19;5.10;;;3.20;;
3815;SDS011;1923;48.154;11.536;2022-09-16T13:02:49;6.20;;;4.60;;
3815;SDS011;1923;48.154;11.536;2022-09-16T13:05:21;6.80;;;4.23;;
3815;SDS011;1923;48.154;11.536;2022-09-16T13:07:59;4.70;;;3.40;;
3815;SDS011;1923;48.154;11.536;2022-09-16T13:10:29;5.07;;;2.97;;
3815;SDS011;1923;48.154;11.536;2022-09-16T13:13:23;5.50;;;3.37;;
3815;SDS011;1923;48.154;11.536;2022-09-16T13:15:58;5.10;;;3.70;;
3815;SDS011;1923;48.154;11.536;2022-09-16T13:18:37;4.97;;;3.30;;
3815;SDS011;1923;48.154;11.536;2022-09-16T13:21:14;3.57;;;2.83;;
3815;SDS011;1923;48.154;11.536;2022-09-16T13:23:51;4.80;;;3.17;;
3815;SDS011;1923;48.154;11.536;2022-09-16T13:26:36;4.87;;;2.83;;
3815;SDS011;1923;48.154;11.536;2022-09-16T13:35:00;5.13;;;3.07;;
3815;SDS011;1923;48.154;11.536;2022-09-16T13:37:29;6.40;;;3.93;;
3815;SDS011;1923;48.154;11.536;2022-09-16T13:40:07;4.50;;;3.30;;
3815;SDS011;1923;48.154;11.536;2022-09-16T13:42:42;4.80;;;3.13;;
3815;SDS011;1923;48.154;11.536;2022-09-16T13:45:30;4.77;;;3.40;;
3815;SDS011;1923;48.154;11.536;2022-09-16T13:48:01;4.47;;;2.67;;
3815;SDS011;1923;48.154;11.536;2022-09-16T13:50:36;5.20;;;2.80;;
3815;SDS011;1923;48.154;11.536;2022-09-16T13:53:07;3.97;;;2.90;;
3815;SDS011;1923;48.154;11.536;2022-09-16T13:55:36;4.90;;;3.70;;
3815;SDS011;1923;48.154;11.536;2022-09-16T13:58:09;4.47;;;2.80;;
3815;SDS011;1923;48.154;11.536;2022-09-16T14:00:48;6.37;;;3.17;;
3815;SDS011;1923;48.154;11.536;2022-09-16T14:03:38;3.70;;;2.87;;
3815;SDS011;1923;48.154;11.536;2022-09-16T14:06:23;4.00;;;2.87;;
3815;SDS011;1923;48.154;11.536;2022-09-16T14:09:10;6.60;;;4.43;;
3815;SDS011;1923;48.154;11.536;2022-09-16T14:11:52;5.60;;;3.07;;
3815;SDS011;1923;48.154;11.536;2022-09-16T14:14:29;3.97;;;3.00;;
3815;SDS011;1923;48.154;11.536;2022-09-16T14:17:18;4.97;;;3.03;;
3815;SDS011;1923;48.154;11.536;2022-09-16T14:19:49;4.50;;;3.43;;
3815;SDS011;1923;48.154;11.536;2022-09-16T14:22:21;3.60;;;3.10;;
3815;SDS011;1923;48.154;11.536;2022-09-16T14:24:52;5.90;;;3.73;;
3815;SDS011;1923;48.154;11.536;2022-09-16T14:27:32;4.87;;;3.53;;
3815;SDS011;1923;48.154;11.536;2022-09-16T14:30:05;4.30;;;3.90;;
3815;SDS011;1923;48.154;11.536;2022-09-16T14:32:41;6.27;;;3.00;;
3815;SDS011;1923;48.154;11.536;2022-09-16T14:35:11;6.10;;;3.33;;
3815;SDS011;1923;48.154;11.536;2022-09-16T14:37:45;8.77;;;3.73;;
3815;SDS011;1923;48.154;11.536;2022-09-16T14:40:18;6.60;;;3.37;;
3815;SDS011;1923;48.154;11.536;2022-09-16T14:42:49;5.77;;;3.80;;
3815;SDS011;1923;48.154;11.536;2022-09-16T14:45:20;6.10;;;4.13;;
3815;SDS011;1923;48.154;11.536;2022-09-16T14:47:50;5.73;;;4.07;;
3815;SDS011;1923;48.154;11.536;2022-09-16T14:50:21;5.73;;;3.80;;
3815;SDS011;1923;48.154;11.536;2022-09-16T14:52:52;6.43;;;4.10;;
3815;SDS011;1923;48.154;11.536;2022-09-16T14:55:22;6.10;;;3.80;;
3815;SDS011;1923;48.154;11.536;2022-09-16T14:57:51;5.30;;;4.10;;
3815;SDS011;1923;48.154;11.536;2022-09-16T15:00:19;4.67;;;3.53;;
3815;SDS011;1923;48.154;11.536;2022-09-16T15:02:50;4.50;;;3.50;;
3815;SDS011;1923;48.154;11.536;2022-09-16T15:05:23;6.77;;;3.33;;
3815;SDS011;1923;48.154;11.536;2022-09-16T15:07:58;5.17;;;4.03;;
3815;SDS011;1923;48.154;11.536;2022-09-16T15:10:39;8.60;;;3.83;;
3815;SDS011;1923;48.154;11.536;2022-09-16T15:13:19;6.93;;;3.80;;
3815;SDS011;1923;48.154;11.536;2022-09-16T15:15:49;6.40;;;4.20;;
3815;SDS011;1923;48.154;11.536;2022-09-16T15:18:23;5.60;;;3.87;;
3815;SDS011;1923;48.154;11.536;2022-09-16T15:21:01;5.33;;;4.10;;
3815;SDS011;1923;48.154;11.536;2022-09-16T15:23:32;4.87;;;3.87;;
3815;SDS011;1923;48.154;11.536;2022-09-16T15:26:12;4.73;;;3.47;;
3815;SDS011;1923;48.154;11.536;2022-09-16T15:28:52;9.63;;;4.13;;
3815;SDS011;1923;48.154;11.536;2022-09-16T15:31:30;5.30;;;3.73;;
3815;SDS011;1923;48.154;11.536;2022-09-16T15:34:02;4.77;;;3.23;;
3815;SDS011;1923;48.154;11.536;2022-09-16T15:36:46;5.37;;;3.43;;
3815;SDS011;1923;48.154;11.536;2022-09-16T15:39:20;5.47;;;3.63;;
3815;SDS011;1923;48.154;11.536;2022-09-16T15:42:04;5.17;;;3.87;;
3815;SDS011;1923;48.154;11.536;2022-09-16T15:44:41;4.93;;;3.60;;
3815;SDS011;1923;48.154;11.536;2022-09-16T15:47:19;5.23;;;3.93;;
3815;SDS011;1923;48.154;11.536;2022-09-16T15:49:53;5.17;;;3.60;;
3815;SDS011;1923;48.154;11.536;2022-09-16T15:52:25;6.03;;;4.33;;
3815;SDS011;1923;48.154;11.536;2022-09-16T15:54:54;5.93;;;3.50;;
3815;SDS011;1923;48.154;11.536;2022-09-16T15:57:26;9.57;;;5.07;;